Flight Track Log - Related Links

Times and Time Zones

All times are in EDT time to prevent confusion due to time zone crossing. See the SKW6446 flight status page for this flight to view local times or setup timezone preferences in your user account.

Time Position Orientation Groundspeed Altitude Reporting Facility
EDT Latitude Longitude Course Direction KTS MPH feet Rate Location/Type
Sun 07:56:00 PM 34.1186 -118.7762 300° West  Level Estimated
Sun 07:57:00 PM 34.1624 -118.8685 300° West  Level Estimated
Sun 07:58:00 PM 34.2062 -118.9608 300° West  Level Estimated
Sun 07:59:00 PM 34.2499 -119.0533 300° West  Level Estimated
Sun 08:00:00 PM 34.2935 -119.1459 300° West  Level Estimated
Sun 08:01:00 PM 34.3371 -119.2385 300° West  Level Estimated
Sun 08:02:00 PM 34.3806 -119.3313 300° West  Level Estimated
Sun 08:03:00 PM 34.4240 -119.4241 300° West  Level Estimated
Sun 08:04:00 PM 34.4674 -119.5170 300° West  Level Estimated
Sun 08:05:00 PM 34.5107 -119.6101 299° West  Level Estimated
Sun 08:06:00 PM 34.5539 -119.7032 299° West  Level Estimated
Sun 08:07:00 PM 34.5971 -119.7964 299° West  Level Estimated
Sun 08:08:00 PM 34.6401 -119.8898 299° West  Level Estimated
Sun 08:09:00 PM 34.6832 -119.9832 299° West  Level Estimated
Sun 08:10:00 PM 34.7261 -120.0767 299° West  Level Estimated
Sun 08:11:00 PM 34.7689 -120.1703 299° West  Level Estimated
Sun 08:12:00 PM 34.8117 -120.2641 299° West  Level Estimated
Sun 08:13:00 PM 34.8545 -120.3579 299° West  Level Estimated
Sun 08:14:00 PM 34.8971 -120.4518 299° West  Level Estimated
Sun 08:15:00 PM 34.8999 -120.4581 299° West  Level Estimated
Sun 08:16:00 PM 34.8999 -120.4581 328° Northwest  Level Estimated
Sun 08:17:00 PM 34.8999 -120.4581 328° Northwest  Level Estimated
Sun 08:18:00 PM 34.8999 -120.4581 328° Northwest  Level Estimated
Sun 08:19:00 PM 34.8999 -120.4581 328° Northwest  Level Estimated
Sun 08:20:00 PM 34.8999 -120.4581 328° Northwest  Level Estimated
Sun 08:21:00 PM 34.8999 -120.4581 328° Northwest  Level Estimated
Sun 08:22:00 PM 34.8999 -120.4581 328° Northwest  Level Estimated
Sun 08:23:00 PM 34.8999 -120.4581 328° Northwest  Level Estimated
Sun 08:24:00 PM 34.8999 -120.4581 328° Northwest  Level Estimated

Login

Don't have an account? Register now (free) for customized features, flight alerts, and more!